sensor_id;sensor_type;location;lat;lon;timestamp;P1;durP1;ratioP1;P2;durP2;ratioP2
84814;SDS011;75050;53.190;5.562;2024-02-21T00:01:52;11.55;;;6.80;;
84814;SDS011;75050;53.190;5.562;2024-02-21T00:04:17;11.32;;;7.47;;
84814;SDS011;75050;53.190;5.562;2024-02-21T00:06:42;14.80;;;5.90;;
84814;SDS011;75050;53.190;5.562;2024-02-21T00:09:08;9.27;;;5.72;;
84814;SDS011;75050;53.190;5.562;2024-02-21T00:11:34;13.18;;;6.35;;
84814;SDS011;75050;53.190;5.562;2024-02-21T00:14:00;10.52;;;6.68;;
84814;SDS011;75050;53.190;5.562;2024-02-21T00:16:25;7.13;;;5.25;;
84814;SDS011;75050;53.190;5.562;2024-02-21T00:18:51;16.90;;;6.63;;
84814;SDS011;75050;53.190;5.562;2024-02-21T00:21:16;13.50;;;5.18;;
84814;SDS011;75050;53.190;5.562;2024-02-21T00:23:43;12.15;;;6.55;;
84814;SDS011;75050;53.190;5.562;2024-02-21T00:26:11;16.40;;;4.72;;
84814;SDS011;75050;53.190;5.562;2024-02-21T00:28:38;17.08;;;7.28;;
84814;SDS011;75050;53.190;5.562;2024-02-21T00:31:03;11.55;;;6.80;;
84814;SDS011;75050;53.190;5.562;2024-02-21T00:33:28;9.55;;;5.53;;
84814;SDS011;75050;53.190;5.562;2024-02-21T00:35:54;11.65;;;5.43;;
84814;SDS011;75050;53.190;5.562;2024-02-21T00:38:19;15.65;;;5.75;;
84814;SDS011;75050;53.190;5.562;2024-02-21T00:40:44;15.45;;;5.90;;
84814;SDS011;75050;53.190;5.562;2024-02-21T00:43:10;17.20;;;6.65;;
84814;SDS011;75050;53.190;5.562;2024-02-21T00:45:35;12.38;;;6.47;;
84814;SDS011;75050;53.190;5.562;2024-02-21T00:48:00;10.38;;;5.50;;
84814;SDS011;75050;53.190;5.562;2024-02-21T00:50:26;13.23;;;5.72;;
84814;SDS011;75050;53.190;5.562;2024-02-21T00:52:51;13.88;;;5.13;;
84814;SDS011;75050;53.190;5.562;2024-02-21T00:55:17;10.10;;;6.07;;
84814;SDS011;75050;53.190;5.562;2024-02-21T00:57:42;15.02;;;6.57;;
84814;SDS011;75050;53.190;5.562;2024-02-21T01:00:07;12.95;;;8.43;;
84814;SDS011;75050;53.190;5.562;2024-02-21T01:02:33;12.90;;;6.28;;
84814;SDS011;75050;53.190;5.562;2024-02-21T01:04:59;13.93;;;7.40;;
84814;SDS011;75050;53.190;5.562;2024-02-21T01:07:25;14.45;;;6.78;;
84814;SDS011;75050;53.190;5.562;2024-02-21T01:09:50;12.88;;;6.75;;
84814;SDS011;75050;53.190;5.562;2024-02-21T01:12:16;12.00;;;6.53;;
84814;SDS011;75050;53.190;5.562;2024-02-21T01:14:41;14.13;;;5.68;;
84814;SDS011;75050;53.190;5.562;2024-02-21T01:17:07;16.05;;;6.15;;
84814;SDS011;75050;53.190;5.562;2024-02-21T01:19:32;15.82;;;14.13;;
84814;SDS011;75050;53.190;5.562;2024-02-21T01:21:58;16.40;;;6.65;;
84814;SDS011;75050;53.190;5.562;2024-02-21T01:24:23;11.55;;;7.28;;
84814;SDS011;75050;53.190;5.562;2024-02-21T01:26:49;15.32;;;6.63;;
84814;SDS011;75050;53.190;5.562;2024-02-21T01:29:14;10.93;;;4.95;;
84814;SDS011;75050;53.190;5.562;2024-02-21T01:31:40;17.60;;;7.07;;
84814;SDS011;75050;53.190;5.562;2024-02-21T01:34:05;14.70;;;6.15;;
84814;SDS011;75050;53.190;5.562;2024-02-21T01:36:30;14.57;;;6.75;;
84814;SDS011;75050;53.190;5.562;2024-02-21T01:38:56;17.08;;;6.13;;
84814;SDS011;75050;53.190;5.562;2024-02-21T01:41:21;15.57;;;6.68;;
84814;SDS011;75050;53.190;5.562;2024-02-21T01:43:47;11.50;;;6.03;;
84814;SDS011;75050;53.190;5.562;2024-02-21T01:46:12;15.52;;;5.88;;
84814;SDS011;75050;53.190;5.562;2024-02-21T01:48:37;11.65;;;5.97;;
84814;SDS011;75050;53.190;5.562;2024-02-21T01:51:03;10.50;;;5.53;;
84814;SDS011;75050;53.190;5.562;2024-02-21T01:53:30;13.50;;;7.07;;
84814;SDS011;75050;53.190;5.562;2024-02-21T01:56:05;18.30;;;7.60;;
84814;SDS011;75050;53.190;5.562;2024-02-21T01:58:31;12.13;;;6.88;;
84814;SDS011;75050;53.190;5.562;2024-02-21T02:00:59;12.23;;;6.18;;
84814;SDS011;75050;53.190;5.562;2024-02-21T02:03:25;8.73;;;4.82;;
84814;SDS011;75050;53.190;5.562;2024-02-21T02:05:50;12.68;;;6.60;;
84814;SDS011;75050;53.190;5.562;2024-02-21T02:08:17;11.43;;;7.20;;
84814;SDS011;75050;53.190;5.562;2024-02-21T02:10:44;12.63;;;7.75;;
84814;SDS011;75050;53.190;5.562;2024-02-21T02:13:10;14.55;;;6.97;;
84814;SDS011;75050;53.190;5.562;2024-02-21T02:15:43;11.68;;;5.57;;
84814;SDS011;75050;53.190;5.562;2024-02-21T02:18:10;17.02;;;7.05;;
84814;SDS011;75050;53.190;5.562;2024-02-21T02:20:37;9.32;;;4.88;;
84814;SDS011;75050;53.190;5.562;2024-02-21T02:23:12;11.55;;;6.38;;
84814;SDS011;75050;53.190;5.562;2024-02-21T02:25:38;13.88;;;6.28;;
84814;SDS011;75050;53.190;5.562;2024-02-21T02:28:07;11.07;;;9.20;;
84814;SDS011;75050;53.190;5.562;2024-02-21T02:30:33;11.93;;;6.57;;
84814;SDS011;75050;53.190;5.562;2024-02-21T02:33:02;11.45;;;5.80;;
84814;SDS011;75050;53.190;5.562;2024-02-21T02:35:28;13.15;;;8.13;;
84814;SDS011;75050;53.190;5.562;2024-02-21T02:37:54;19.42;;;6.47;;
84814;SDS011;75050;53.190;5.562;2024-02-21T02:40:19;12.25;;;5.68;;
84814;SDS011;75050;53.190;5.562;2024-02-21T02:42:45;11.00;;;6.47;;
84814;SDS011;75050;53.190;5.562;2024-02-21T02:45:10;18.70;;;6.15;;
84814;SDS011;75050;53.190;5.562;2024-02-21T02:47:36;17.50;;;7.18;;
84814;SDS011;75050;53.190;5.562;2024-02-21T02:50:01;19.65;;;7.55;;
84814;SDS011;75050;53.190;5.562;2024-02-21T02:52:27;15.05;;;8.20;;
84814;SDS011;75050;53.190;5.562;2024-02-21T02:54:52;15.57;;;13.63;;
84814;SDS011;75050;53.190;5.562;2024-02-21T02:57:20;14.77;;;7.30;;
84814;SDS011;75050;53.190;5.562;2024-02-21T02:59:49;18.17;;;5.68;;
84814;SDS011;75050;53.190;5.562;2024-02-21T03:02:15;19.40;;;8.98;;
84814;SDS011;75050;53.190;5.562;2024-02-21T03:04:41;15.50;;;6.75;;
84814;SDS011;75050;53.190;5.562;2024-02-21T03:07:06;20.05;;;6.68;;
84814;SDS011;75050;53.190;5.562;2024-02-21T03:09:32;14.68;;;6.60;;
84814;SDS011;75050;53.190;5.562;2024-02-21T03:11:57;15.93;;;6.30;;
84814;SDS011;75050;53.190;5.562;2024-02-21T03:14:27;18.55;;;6.75;;
84814;SDS011;75050;53.190;5.562;2024-02-21T03:16:57;14.32;;;6.85;;
84814;SDS011;75050;53.190;5.562;2024-02-21T03:19:23;14.30;;;7.22;;
84814;SDS011;75050;53.190;5.562;2024-02-21T03:21:48;13.65;;;7.18;;
84814;SDS011;75050;53.190;5.562;2024-02-21T03:24:15;19.75;;;7.18;;
84814;SDS011;75050;53.190;5.562;2024-02-21T03:26:41;16.20;;;6.28;;
84814;SDS011;75050;53.190;5.562;2024-02-21T03:29:06;13.15;;;6.38;;
84814;SDS011;75050;53.190;5.562;2024-02-21T03:31:32;14.02;;;5.97;;
84814;SDS011;75050;53.190;5.562;2024-02-21T03:33:58;14.50;;;6.50;;
84814;SDS011;75050;53.190;5.562;2024-02-21T03:36:23;15.32;;;6.10;;
84814;SDS011;75050;53.190;5.562;2024-02-21T03:38:48;12.20;;;4.95;;
84814;SDS011;75050;53.190;5.562;2024-02-21T03:41:14;15.68;;;6.60;;
84814;SDS011;75050;53.190;5.562;2024-02-21T03:43:39;12.32;;;6.20;;
84814;SDS011;75050;53.190;5.562;2024-02-21T03:46:05;10.95;;;7.70;;
84814;SDS011;75050;53.190;5.562;2024-02-21T03:48:31;13.38;;;6.35;;
84814;SDS011;75050;53.190;5.562;2024-02-21T03:50:57;15.40;;;6.05;;
84814;SDS011;75050;53.190;5.562;2024-02-21T03:53:22;17.23;;;6.05;;
84814;SDS011;75050;53.190;5.562;2024-02-21T03:55:47;13.48;;;5.88;;
84814;SDS011;75050;53.190;5.562;2024-02-21T03:58:13;15.07;;;6.25;;
84814;SDS011;75050;53.190;5.562;2024-02-21T04:00:38;18.58;;;5.97;;
84814;SDS011;75050;53.190;5.562;2024-02-21T04:03:04;14.15;;;6.80;;
84814;SDS011;75050;53.190;5.562;2024-02-21T04:05:29;8.80;;;7.28;;
84814;SDS011;75050;53.190;5.562;2024-02-21T04:07:55;10.75;;;5.93;;
84814;SDS011;75050;53.190;5.562;2024-02-21T04:10:20;12.10;;;6.50;;
84814;SDS011;75050;53.190;5.562;2024-02-21T04:12:45;15.73;;;6.53;;
84814;SDS011;75050;53.190;5.562;2024-02-21T04:15:11;11.30;;;5.65;;
84814;SDS011;75050;53.190;5.562;2024-02-21T04:17:36;13.63;;;5.10;;
84814;SDS011;75050;53.190;5.562;2024-02-21T04:20:05;14.65;;;6.72;;
84814;SDS011;75050;53.190;5.562;2024-02-21T04:22:32;15.40;;;6.43;;
84814;SDS011;75050;53.190;5.562;2024-02-21T04:25:01;13.25;;;6.78;;
84814;SDS011;75050;53.190;5.562;2024-02-21T04:27:27;13.95;;;6.18;;
84814;SDS011;75050;53.190;5.562;2024-02-21T04:29:52;12.77;;;5.25;;
84814;SDS011;75050;53.190;5.562;2024-02-21T04:32:18;14.88;;;7.78;;
84814;SDS011;75050;53.190;5.562;2024-02-21T04:34:43;8.30;;;5.45;;
84814;SDS011;75050;53.190;5.562;2024-02-21T04:37:09;9.05;;;6.25;;
84814;SDS011;75050;53.190;5.562;2024-02-21T04:39:34;16.75;;;14.05;;
84814;SDS011;75050;53.190;5.562;2024-02-21T04:41:59;20.77;;;18.73;;
84814;SDS011;75050;53.190;5.562;2024-02-21T04:44:25;8.98;;;5.43;;
84814;SDS011;75050;53.190;5.562;2024-02-21T04:46:50;11.43;;;5.22;;
84814;SDS011;75050;53.190;5.562;2024-02-21T04:49:16;11.35;;;5.28;;
84814;SDS011;75050;53.190;5.562;2024-02-21T04:51:41;10.98;;;4.75;;
84814;SDS011;75050;53.190;5.562;2024-02-21T04:54:06;9.88;;;5.80;;
84814;SDS011;75050;53.190;5.562;2024-02-21T04:56:32;12.40;;;5.65;;
84814;SDS011;75050;53.190;5.562;2024-02-21T04:58:57;13.60;;;6.82;;
84814;SDS011;75050;53.190;5.562;2024-02-21T05:01:23;11.93;;;6.25;;
84814;SDS011;75050;53.190;5.562;2024-02-21T05:03:48;19.10;;;6.30;;
84814;SDS011;75050;53.190;5.562;2024-02-21T05:06:14;14.05;;;5.35;;
84814;SDS011;75050;53.190;5.562;2024-02-21T05:08:39;8.93;;;5.43;;
84814;SDS011;75050;53.190;5.562;2024-02-21T05:11:05;10.35;;;6.75;;
84814;SDS011;75050;53.190;5.562;2024-02-21T05:13:30;14.50;;;6.45;;
84814;SDS011;75050;53.190;5.562;2024-02-21T05:15:56;14.73;;;6.70;;
84814;SDS011;75050;53.190;5.562;2024-02-21T05:18:21;15.10;;;6.68;;
84814;SDS011;75050;53.190;5.562;2024-02-21T05:20:47;12.77;;;6.30;;
84814;SDS011;75050;53.190;5.562;2024-02-21T05:23:12;9.05;;;5.00;;
84814;SDS011;75050;53.190;5.562;2024-02-21T05:25:37;12.13;;;7.18;;
84814;SDS011;75050;53.190;5.562;2024-02-21T05:28:03;13.38;;;5.40;;
84814;SDS011;75050;53.190;5.562;2024-02-21T05:30:30;14.15;;;7.13;;
84814;SDS011;75050;53.190;5.562;2024-02-21T05:32:56;15.93;;;8.75;;
84814;SDS011;75050;53.190;5.562;2024-02-21T05:35:25;14.40;;;5.80;;
84814;SDS011;75050;53.190;5.562;2024-02-21T05:37:53;10.10;;;5.68;;
84814;SDS011;75050;53.190;5.562;2024-02-21T05:40:19;9.43;;;5.60;;
84814;SDS011;75050;53.190;5.562;2024-02-21T05:42:44;12.50;;;5.85;;
84814;SDS011;75050;53.190;5.562;2024-02-21T05:45:09;11.95;;;6.18;;
84814;SDS011;75050;53.190;5.562;2024-02-21T05:47:35;9.55;;;5.03;;
84814;SDS011;75050;53.190;5.562;2024-02-21T05:50:00;13.90;;;5.32;;
84814;SDS011;75050;53.190;5.562;2024-02-21T05:52:26;8.43;;;5.30;;
84814;SDS011;75050;53.190;5.562;2024-02-21T05:54:51;12.13;;;5.32;;
84814;SDS011;75050;53.190;5.562;2024-02-21T05:57:19;13.02;;;5.68;;
84814;SDS011;75050;53.190;5.562;2024-02-21T05:59:45;13.30;;;5.93;;
84814;SDS011;75050;53.190;5.562;2024-02-21T06:02:10;13.57;;;4.95;;
84814;SDS011;75050;53.190;5.562;2024-02-21T06:04:35;12.30;;;6.85;;
84814;SDS011;75050;53.190;5.562;2024-02-21T06:07:01;9.65;;;5.95;;
84814;SDS011;75050;53.190;5.562;2024-02-21T06:09:27;10.65;;;4.63;;
84814;SDS011;75050;53.190;5.562;2024-02-21T06:11:53;7.25;;;5.93;;
84814;SDS011;75050;53.190;5.562;2024-02-21T06:14:19;8.82;;;6.13;;
84814;SDS011;75050;53.190;5.562;2024-02-21T06:16:44;12.45;;;5.40;;
84814;SDS011;75050;53.190;5.562;2024-02-21T06:19:10;10.02;;;6.00;;
84814;SDS011;75050;53.190;5.562;2024-02-21T06:21:35;9.60;;;5.93;;
84814;SDS011;75050;53.190;5.562;2024-02-21T06:24:01;10.43;;;4.63;;
84814;SDS011;75050;53.190;5.562;2024-02-21T06:26:27;14.13;;;7.90;;
84814;SDS011;75050;53.190;5.562;2024-02-21T06:28:52;9.23;;;5.15;;
84814;SDS011;75050;53.190;5.562;2024-02-21T06:31:17;6.57;;;5.55;;
84814;SDS011;75050;53.190;5.562;2024-02-21T06:33:43;11.82;;;7.63;;
84814;SDS011;75050;53.190;5.562;2024-02-21T06:36:08;12.48;;;6.38;;
84814;SDS011;75050;53.190;5.562;2024-02-21T06:38:33;9.55;;;5.93;;
84814;SDS011;75050;53.190;5.562;2024-02-21T06:40:59;8.40;;;5.75;;
84814;SDS011;75050;53.190;5.562;2024-02-21T06:43:25;7.00;;;4.30;;
84814;SDS011;75050;53.190;5.562;2024-02-21T06:45:51;7.57;;;5.70;;
84814;SDS011;75050;53.190;5.562;2024-02-21T06:48:17;14.88;;;5.63;;
84814;SDS011;75050;53.190;5.562;2024-02-21T06:50:43;9.02;;;6.72;;
84814;SDS011;75050;53.190;5.562;2024-02-21T06:53:09;7.22;;;6.35;;
84814;SDS011;75050;53.190;5.562;2024-02-21T06:55:34;10.82;;;6.10;;
84814;SDS011;75050;53.190;5.562;2024-02-21T06:58:00;9.95;;;5.25;;
84814;SDS011;75050;53.190;5.562;2024-02-21T07:00:26;10.23;;;6.88;;
84814;SDS011;75050;53.190;5.562;2024-02-21T07:02:53;10.50;;;6.28;;
84814;SDS011;75050;53.190;5.562;2024-02-21T07:05:18;9.30;;;5.38;;
84814;SDS011;75050;53.190;5.562;2024-02-21T07:07:44;13.77;;;7.53;;
84814;SDS011;75050;53.190;5.562;2024-02-21T07:10:09;12.50;;;7.35;;
84814;SDS011;75050;53.190;5.562;2024-02-21T07:12:35;10.07;;;6.70;;
84814;SDS011;75050;53.190;5.562;2024-02-21T07:15:03;8.93;;;5.53;;
84814;SDS011;75050;53.190;5.562;2024-02-21T07:17:29;10.88;;;6.55;;
84814;SDS011;75050;53.190;5.562;2024-02-21T07:19:55;10.63;;;6.72;;
84814;SDS011;75050;53.190;5.562;2024-02-21T07:22:22;9.75;;;6.78;;
84814;SDS011;75050;53.190;5.562;2024-02-21T07:24:47;11.45;;;6.90;;
84814;SDS011;75050;53.190;5.562;2024-02-21T07:27:14;18.50;;;7.72;;
84814;SDS011;75050;53.190;5.562;2024-02-21T07:29:40;10.55;;;5.85;;
84814;SDS011;75050;53.190;5.562;2024-02-21T07:32:05;11.80;;;6.45;;
84814;SDS011;75050;53.190;5.562;2024-02-21T07:34:31;15.02;;;8.20;;
84814;SDS011;75050;53.190;5.562;2024-02-21T07:36:56;8.10;;;5.82;;
84814;SDS011;75050;53.190;5.562;2024-02-21T07:39:22;13.70;;;6.90;;
84814;SDS011;75050;53.190;5.562;2024-02-21T07:41:47;9.25;;;7.20;;
84814;SDS011;75050;53.190;5.562;2024-02-21T07:44:14;13.77;;;8.70;;
84814;SDS011;75050;53.190;5.562;2024-02-21T07:46:40;13.30;;;7.65;;
84814;SDS011;75050;53.190;5.562;2024-02-21T07:49:05;12.18;;;7.97;;
84814;SDS011;75050;53.190;5.562;2024-02-21T07:51:30;11.18;;;7.45;;
84814;SDS011;75050;53.190;5.562;2024-02-21T07:53:56;13.93;;;6.97;;
84814;SDS011;75050;53.190;5.562;2024-02-21T07:56:21;17.95;;;7.90;;
84814;SDS011;75050;53.190;5.562;2024-02-21T07:58:47;14.80;;;6.07;;
84814;SDS011;75050;53.190;5.562;2024-02-21T08:01:17;18.45;;;7.65;;
84814;SDS011;75050;53.190;5.562;2024-02-21T08:03:46;16.05;;;14.52;;
84814;SDS011;75050;53.190;5.562;2024-02-21T08:06:12;15.45;;;7.88;;
84814;SDS011;75050;53.190;5.562;2024-02-21T08:08:39;11.48;;;7.60;;
84814;SDS011;75050;53.190;5.562;2024-02-21T08:11:07;13.35;;;7.30;;
84814;SDS011;75050;53.190;5.562;2024-02-21T08:13:32;11.52;;;6.55;;
84814;SDS011;75050;53.190;5.562;2024-02-21T08:15:58;16.30;;;6.95;;
84814;SDS011;75050;53.190;5.562;2024-02-21T08:18:23;13.25;;;9.52;;
84814;SDS011;75050;53.190;5.562;2024-02-21T08:20:48;15.88;;;8.20;;
84814;SDS011;75050;53.190;5.562;2024-02-21T08:23:18;13.15;;;6.50;;
84814;SDS011;75050;53.190;5.562;2024-02-21T08:25:43;14.15;;;9.50;;
84814;SDS011;75050;53.190;5.562;2024-02-21T08:28:09;16.10;;;8.48;;
84814;SDS011;75050;53.190;5.562;2024-02-21T08:30:34;15.38;;;8.50;;
84814;SDS011;75050;53.190;5.562;2024-02-21T08:33:00;10.80;;;5.57;;
84814;SDS011;75050;53.190;5.562;2024-02-21T08:35:25;14.15;;;7.43;;
84814;SDS011;75050;53.190;5.562;2024-02-21T08:37:50;13.98;;;9.32;;
84814;SDS011;75050;53.190;5.562;2024-02-21T08:40:16;16.20;;;7.45;;
84814;SDS011;75050;53.190;5.562;2024-02-21T08:42:46;11.07;;;6.63;;
84814;SDS011;75050;53.190;5.562;2024-02-21T08:45:12;13.13;;;7.90;;
84814;SDS011;75050;53.190;5.562;2024-02-21T08:47:41;13.52;;;7.55;;
84814;SDS011;75050;53.190;5.562;2024-02-21T08:50:06;9.80;;;6.30;;
84814;SDS011;75050;53.190;5.562;2024-02-21T08:52:34;12.18;;;6.25;;
84814;SDS011;75050;53.190;5.562;2024-02-21T08:55:00;13.95;;;7.88;;
84814;SDS011;75050;53.190;5.562;2024-02-21T08:57:25;15.45;;;8.38;;
84814;SDS011;75050;53.190;5.562;2024-02-21T08:59:50;12.70;;;6.97;;
84814;SDS011;75050;53.190;5.562;2024-02-21T09:02:16;11.20;;;7.45;;
84814;SDS011;75050;53.190;5.562;2024-02-21T09:04:41;11.80;;;5.80;;
84814;SDS011;75050;53.190;5.562;2024-02-21T09:07:07;10.65;;;7.55;;
84814;SDS011;75050;53.190;5.562;2024-02-21T09:09:32;12.40;;;7.68;;
84814;SDS011;75050;53.190;5.562;2024-02-21T09:11:58;14.57;;;10.40;;
84814;SDS011;75050;53.190;5.562;2024-02-21T09:14:30;14.95;;;8.98;;
84814;SDS011;75050;53.190;5.562;2024-02-21T09:16:56;15.75;;;7.45;;
84814;SDS011;75050;53.190;5.562;2024-02-21T09:19:21;12.13;;;8.23;;
84814;SDS011;75050;53.190;5.562;2024-02-21T09:21:47;15.27;;;7.20;;
84814;SDS011;75050;53.190;5.562;2024-02-21T09:24:12;14.05;;;7.95;;
84814;SDS011;75050;53.190;5.562;2024-02-21T09:26:37;21.33;;;19.23;;
84814;SDS011;75050;53.190;5.562;2024-02-21T09:29:03;16.85;;;14.93;;
84814;SDS011;75050;53.190;5.562;2024-02-21T09:31:29;13.27;;;7.43;;
84814;SDS011;75050;53.190;5.562;2024-02-21T09:33:54;10.00;;;6.97;;
84814;SDS011;75050;53.190;5.562;2024-02-21T09:36:19;12.50;;;9.02;;
84814;SDS011;75050;53.190;5.562;2024-02-21T09:38:46;12.55;;;8.05;;
84814;SDS011;75050;53.190;5.562;2024-02-21T09:41:15;9.77;;;8.68;;
84814;SDS011;75050;53.190;5.562;2024-02-21T09:43:44;12.82;;;8.13;;
84814;SDS011;75050;53.190;5.562;2024-02-21T09:46:16;13.90;;;9.32;;
84814;SDS011;75050;53.190;5.562;2024-02-21T09:51:48;15.02;;;9.55;;
84814;SDS011;75050;53.190;5.562;2024-02-21T09:54:16;14.82;;;9.05;;
84814;SDS011;75050;53.190;5.562;2024-02-21T09:56:45;14.65;;;10.10;;
84814;SDS011;75050;53.190;5.562;2024-02-21T09:59:11;14.27;;;10.65;;
84814;SDS011;75050;53.190;5.562;2024-02-21T10:01:37;17.50;;;10.57;;
84814;SDS011;75050;53.190;5.562;2024-02-21T10:04:02;14.68;;;9.88;;
84814;SDS011;75050;53.190;5.562;2024-02-21T10:06:29;14.65;;;9.63;;
84814;SDS011;75050;53.190;5.562;2024-02-21T10:08:55;13.70;;;10.73;;
84814;SDS011;75050;53.190;5.562;2024-02-21T10:11:24;15.05;;;9.45;;
84814;SDS011;75050;53.190;5.562;2024-02-21T10:13:50;14.77;;;10.25;;
84814;SDS011;75050;53.190;5.562;2024-02-21T10:16:16;20.73;;;12.00;;
84814;SDS011;75050;53.190;5.562;2024-02-21T10:18:41;14.20;;;9.45;;
84814;SDS011;75050;53.190;5.562;2024-02-21T10:21:07;13.38;;;9.32;;
84814;SDS011;75050;53.190;5.562;2024-02-21T10:23:46;14.07;;;10.73;;
84814;SDS011;75050;53.190;5.562;2024-02-21T10:26:13;19.15;;;12.18;;
84814;SDS011;75050;53.190;5.562;2024-02-21T10:28:39;12.65;;;10.52;;
84814;SDS011;75050;53.190;5.562;2024-02-21T10:31:07;15.38;;;11.65;;
84814;SDS011;75050;53.190;5.562;2024-02-21T10:33:34;14.90;;;11.40;;
84814;SDS011;75050;53.190;5.562;2024-02-21T10:36:06;15.35;;;11.55;;
84814;SDS011;75050;53.190;5.562;2024-02-21T10:38:35;14.88;;;12.00;;
84814;SDS011;75050;53.190;5.562;2024-02-21T10:41:02;16.67;;;10.85;;
84814;SDS011;75050;53.190;5.562;2024-02-21T10:43:29;14.25;;;11.52;;
84814;SDS011;75050;53.190;5.562;2024-02-21T10:46:02;17.50;;;12.55;;
84814;SDS011;75050;53.190;5.562;2024-02-21T10:48:33;16.33;;;12.00;;
84814;SDS011;75050;53.190;5.562;2024-02-21T10:51:17;18.92;;;15.80;;
84814;SDS011;75050;53.190;5.562;2024-02-21T10:56:35;15.55;;;11.43;;
84814;SDS011;75050;53.190;5.562;2024-02-21T10:59:06;17.63;;;12.85;;
84814;SDS011;75050;53.190;5.562;2024-02-21T11:01:33;27.27;;;25.05;;
84814;SDS011;75050;53.190;5.562;2024-02-21T11:04:04;20.90;;;14.65;;
84814;SDS011;75050;53.190;5.562;2024-02-21T11:06:32;16.85;;;13.63;;
84814;SDS011;75050;53.190;5.562;2024-02-21T11:09:05;15.98;;;13.70;;
84814;SDS011;75050;53.190;5.562;2024-02-21T11:11:33;17.02;;;13.80;;
84814;SDS011;75050;53.190;5.562;2024-02-21T11:14:08;15.75;;;11.90;;
84814;SDS011;75050;53.190;5.562;2024-02-21T11:16:44;16.45;;;11.75;;
84814;SDS011;75050;53.190;5.562;2024-02-21T11:19:10;18.00;;;12.10;;
84814;SDS011;75050;53.190;5.562;2024-02-21T11:21:45;17.73;;;12.45;;
84814;SDS011;75050;53.190;5.562;2024-02-21T11:24:10;17.27;;;13.18;;
84814;SDS011;75050;53.190;5.562;2024-02-21T11:26:39;19.08;;;14.18;;
84814;SDS011;75050;53.190;5.562;2024-02-21T11:31:43;15.77;;;12.93;;
84814;SDS011;75050;53.190;5.562;2024-02-21T11:34:11;18.75;;;12.07;;
84814;SDS011;75050;53.190;5.562;2024-02-21T11:36:49;18.40;;;14.10;;
84814;SDS011;75050;53.190;5.562;2024-02-21T11:39:23;16.50;;;12.55;;
84814;SDS011;75050;53.190;5.562;2024-02-21T11:42:03;22.95;;;14.88;;
84814;SDS011;75050;53.190;5.562;2024-02-21T11:44:29;18.20;;;13.98;;
84814;SDS011;75050;53.190;5.562;2024-02-21T11:46:54;16.92;;;13.20;;
84814;SDS011;75050;53.190;5.562;2024-02-21T11:49:20;22.70;;;14.70;;
84814;SDS011;75050;53.190;5.562;2024-02-21T11:51:46;19.30;;;14.18;;
84814;SDS011;75050;53.190;5.562;2024-02-21T11:54:12;21.00;;;14.82;;
84814;SDS011;75050;53.190;5.562;2024-02-21T11:56:41;20.77;;;15.35;;
84814;SDS011;75050;53.190;5.562;2024-02-21T11:59:06;19.65;;;15.60;;
84814;SDS011;75050;53.190;5.562;2024-02-21T12:01:32;21.25;;;16.10;;
84814;SDS011;75050;53.190;5.562;2024-02-21T12:03:57;21.83;;;15.30;;
84814;SDS011;75050;53.190;5.562;2024-02-21T12:06:22;20.70;;;15.23;;
84814;SDS011;75050;53.190;5.562;2024-02-21T12:08:48;18.38;;;14.18;;
84814;SDS011;75050;53.190;5.562;2024-02-21T12:11:20;20.10;;;15.63;;
84814;SDS011;75050;53.190;5.562;2024-02-21T12:13:47;20.77;;;16.58;;
84814;SDS011;75050;53.190;5.562;2024-02-21T12:16:23;20.85;;;15.02;;
84814;SDS011;75050;53.190;5.562;2024-02-21T12:18:48;21.75;;;15.35;;
84814;SDS011;75050;53.190;5.562;2024-02-21T12:21:13;20.50;;;16.23;;
84814;SDS011;75050;53.190;5.562;2024-02-21T12:23:40;21.15;;;16.38;;
84814;SDS011;75050;53.190;5.562;2024-02-21T12:26:06;20.48;;;15.38;;
84814;SDS011;75050;53.190;5.562;2024-02-21T12:28:33;22.65;;;16.02;;
84814;SDS011;75050;53.190;5.562;2024-02-21T12:30:58;20.30;;;15.20;;
84814;SDS011;75050;53.190;5.562;2024-02-21T12:33:23;21.50;;;14.70;;
84814;SDS011;75050;53.190;5.562;2024-02-21T12:35:49;20.25;;;14.50;;
84814;SDS011;75050;53.190;5.562;2024-02-21T12:38:14;19.40;;;14.60;;
84814;SDS011;75050;53.190;5.562;2024-02-21T12:40:40;21.65;;;17.23;;
84814;SDS011;75050;53.190;5.562;2024-02-21T12:43:05;21.80;;;15.18;;
84814;SDS011;75050;53.190;5.562;2024-02-21T12:45:30;18.15;;;13.38;;
84814;SDS011;75050;53.190;5.562;2024-02-21T12:47:56;22.10;;;16.77;;
84814;SDS011;75050;53.190;5.562;2024-02-21T12:50:21;19.67;;;15.18;;
84814;SDS011;75050;53.190;5.562;2024-02-21T12:52:47;18.98;;;14.20;;
84814;SDS011;75050;53.190;5.562;2024-02-21T12:55:14;19.85;;;16.88;;
84814;SDS011;75050;53.190;5.562;2024-02-21T12:57:41;18.98;;;17.05;;
84814;SDS011;75050;53.190;5.562;2024-02-21T13:00:06;19.00;;;13.50;;
84814;SDS011;75050;53.190;5.562;2024-02-21T13:02:34;17.05;;;14.68;;
84814;SDS011;75050;53.190;5.562;2024-02-21T13:05:00;23.08;;;20.60;;
84814;SDS011;75050;53.190;5.562;2024-02-21T13:07:27;23.33;;;21.23;;
84814;SDS011;75050;53.190;5.562;2024-02-21T13:09:53;16.90;;;12.57;;
84814;SDS011;75050;53.190;5.562;2024-02-21T13:12:19;16.77;;;12.65;;
84814;SDS011;75050;53.190;5.562;2024-02-21T13:14:44;15.55;;;12.55;;
84814;SDS011;75050;53.190;5.562;2024-02-21T13:17:09;16.77;;;13.55;;
84814;SDS011;75050;53.190;5.562;2024-02-21T13:19:35;15.18;;;13.07;;
84814;SDS011;75050;53.190;5.562;2024-02-21T13:22:00;15.07;;;11.43;;
84814;SDS011;75050;53.190;5.562;2024-02-21T13:24:27;15.18;;;11.93;;
84814;SDS011;75050;53.190;5.562;2024-02-21T13:26:52;15.73;;;12.40;;
84814;SDS011;75050;53.190;5.562;2024-02-21T13:29:18;14.32;;;10.98;;
84814;SDS011;75050;53.190;5.562;2024-02-21T13:31:43;21.48;;;19.48;;
84814;SDS011;75050;53.190;5.562;2024-02-21T13:34:09;16.02;;;11.77;;
84814;SDS011;75050;53.190;5.562;2024-02-21T13:36:34;14.15;;;11.38;;
84814;SDS011;75050;53.190;5.562;2024-02-21T13:38:59;14.50;;;11.43;;
84814;SDS011;75050;53.190;5.562;2024-02-21T13:41:25;14.00;;;10.90;;
84814;SDS011;75050;53.190;5.562;2024-02-21T13:43:51;15.27;;;11.85;;
84814;SDS011;75050;53.190;5.562;2024-02-21T13:46:17;13.23;;;11.57;;
84814;SDS011;75050;53.190;5.562;2024-02-21T13:48:42;13.25;;;11.00;;
84814;SDS011;75050;53.190;5.562;2024-02-21T13:51:07;14.40;;;11.55;;
84814;SDS011;75050;53.190;5.562;2024-02-21T13:53:33;14.32;;;12.25;;
84814;SDS011;75050;53.190;5.562;2024-02-21T13:55:59;21.48;;;19.58;;
84814;SDS011;75050;53.190;5.562;2024-02-21T13:58:25;12.40;;;10.10;;
84814;SDS011;75050;53.190;5.562;2024-02-21T14:00:51;14.70;;;11.93;;
84814;SDS011;75050;53.190;5.562;2024-02-21T14:03:17;12.60;;;11.25;;
84814;SDS011;75050;53.190;5.562;2024-02-21T14:05:44;12.85;;;11.60;;
84814;SDS011;75050;53.190;5.562;2024-02-21T14:08:09;13.65;;;11.93;;
84814;SDS011;75050;53.190;5.562;2024-02-21T14:10:34;12.40;;;11.18;;
84814;SDS011;75050;53.190;5.562;2024-02-21T14:13:00;14.23;;;12.45;;
84814;SDS011;75050;53.190;5.562;2024-02-21T14:15:25;13.25;;;11.20;;
84814;SDS011;75050;53.190;5.562;2024-02-21T14:17:51;12.50;;;10.55;;
84814;SDS011;75050;53.190;5.562;2024-02-21T14:20:16;12.95;;;11.60;;
84814;SDS011;75050;53.190;5.562;2024-02-21T14:22:41;12.63;;;11.18;;
84814;SDS011;75050;53.190;5.562;2024-02-21T14:25:07;13.32;;;10.93;;
84814;SDS011;75050;53.190;5.562;2024-02-21T14:27:33;13.95;;;10.43;;
84814;SDS011;75050;53.190;5.562;2024-02-21T14:29:58;13.70;;;11.00;;
84814;SDS011;75050;53.190;5.562;2024-02-21T14:32:24;14.30;;;12.68;;
84814;SDS011;75050;53.190;5.562;2024-02-21T14:34:49;12.63;;;11.32;;